createdAt,value
2023-02-23T00:02:00.173Z,24.4
2023-02-23T00:07:18.636Z,24.4
2023-02-23T00:12:37.138Z,24.4
2023-02-23T00:17:56.028Z,24.4
2023-02-23T00:23:14.515Z,24.5
2023-02-23T00:28:33.025Z,24.5
2023-02-23T00:33:51.265Z,24.5
2023-02-23T00:39:10.017Z,24.5
2023-02-23T00:44:28.514Z,24.5
2023-02-23T00:49:47.454Z,24.4
2023-02-23T00:55:05.929Z,24.4
2023-02-23T01:00:24.715Z,24.4
2023-02-23T01:05:43.501Z,24.4
2023-02-23T01:11:02.005Z,24.4
2023-02-23T01:16:20.529Z,24.5
2023-02-23T01:21:39.038Z,24.5
2023-02-23T01:26:57.831Z,24.5
2023-02-23T01:32:16.335Z,24.5
2023-02-23T01:37:35.448Z,24.5
2023-02-23T01:42:54.198Z,24.5
2023-02-23T01:48:12.769Z,24.5
2023-02-23T01:53:31.757Z,24.5
2023-02-23T01:58:50.414Z,24.5
2023-02-23T02:04:08.911Z,24.5
2023-02-23T02:09:27.472Z,24.5
2023-02-23T02:14:46.113Z,24.5
2023-02-23T02:20:04.307Z,24.5
2023-02-23T02:25:23.121Z,24.5
2023-02-23T02:30:42.061Z,24.5
2023-02-23T02:36:00.833Z,24.5
2023-02-23T02:41:20.574Z,24.5
2023-02-23T02:46:39.663Z,24.5
2023-02-23T02:51:58.499Z,24.5
2023-02-23T02:57:17.426Z,24.5
2023-02-23T03:02:35.937Z,24.5
2023-02-23T03:07:54.419Z,24.5
2023-02-23T03:13:13.023Z,24.5
2023-02-23T03:18:31.807Z,24.5
2023-02-23T03:23:50.561Z,24.5
2023-02-23T03:29:09.365Z,24.5
2023-02-23T03:34:27.867Z,24.5
2023-02-23T03:39:46.641Z,24.5
2023-02-23T03:45:05.237Z,24.5
2023-02-23T03:50:23.683Z,24.5
2023-02-23T03:55:41.893Z,24.5
2023-02-23T04:01:00.406Z,24.5
2023-02-23T04:06:18.903Z,24.5
2023-02-23T04:11:37.982Z,24.5
2023-02-23T04:16:56.239Z,24.5
2023-02-23T04:22:15.286Z,24.5
2023-02-23T04:27:34.135Z,24.5
2023-02-23T04:32:52.669Z,24.5
2023-02-23T04:38:11.490Z,24.5
2023-02-23T04:43:29.986Z,24.5
2023-02-23T04:48:48.659Z,24.5
2023-02-23T04:54:07.172Z,24.5
2023-02-23T04:59:25.658Z,24.5
2023-02-23T05:04:44.269Z,24.4
2023-02-23T05:10:02.868Z,24.4
2023-02-23T05:15:21.653Z,24.4
2023-02-23T05:20:40.460Z,24.4
2023-02-23T05:25:58.867Z,24.4
2023-02-23T05:31:17.704Z,24.4
2023-02-23T05:36:36.849Z,24.4
2023-02-23T05:41:55.357Z,24.4
2023-02-23T05:47:13.569Z,24.4
2023-02-23T05:52:32.535Z,24.3
2023-02-23T05:57:51.007Z,24.1
2023-02-23T06:03:09.471Z,24.1
2023-02-23T06:08:28.294Z,24.2
2023-02-23T06:13:46.802Z,24.2
2023-02-23T06:19:05.115Z,24.3
2023-02-23T06:24:23.699Z,24.3
2023-02-23T06:29:42.446Z,24.3
2023-02-23T06:35:01.187Z,24.4
2023-02-23T06:40:20.225Z,24.4
2023-02-23T06:45:38.742Z,24.4
2023-02-23T06:50:57.507Z,24.5
2023-02-23T06:56:15.738Z,24.5
2023-02-23T07:01:34.551Z,24.5
2023-02-23T07:06:53.094Z,24.5
2023-02-23T07:12:11.916Z,24.5
2023-02-23T07:17:29.898Z,24.6
2023-02-23T07:22:48.402Z,24.6
2023-02-23T07:28:07.418Z,24.6
2023-02-23T07:33:25.975Z,24.6
2023-02-23T07:38:28.829Z,24.7
2023-02-23T07:43:47.173Z,24.7
2023-02-23T07:49:05.554Z,24.7
2023-02-23T07:54:24.026Z,24.7
2023-02-23T07:59:42.932Z,24.8
2023-02-23T08:05:01.696Z,24.8
2023-02-23T08:10:20.178Z,24.9
2023-02-23T08:15:38.429Z,25
2023-02-23T08:20:57.040Z,25
2023-02-23T08:26:15.220Z,25
2023-02-23T08:31:34.890Z,25
2023-02-23T08:36:53.976Z,25.1
2023-02-23T08:42:12.780Z,25.1
2023-02-23T08:47:31.423Z,25.2
2023-02-23T08:52:49.703Z,25.3
2023-02-23T08:58:07.897Z,25.3
2023-02-23T09:03:26.543Z,25.3
2023-02-23T09:08:44.904Z,25.4
2023-02-23T09:14:03.159Z,25.4
2023-02-23T09:19:21.460Z,25.4
2023-02-23T09:24:39.767Z,25.4
2023-02-23T09:29:58.245Z,25.4
2023-02-23T09:35:01.505Z,25.4
2023-02-23T09:40:19.769Z,25.4
2023-02-23T09:45:22.647Z,25.5
2023-02-23T09:50:41.169Z,25.5
2023-02-23T09:56:00.171Z,25.5
2023-02-23T10:01:19.200Z,25.5
2023-02-23T10:06:38.068Z,25.5
2023-02-23T10:11:55.983Z,25.5
2023-02-23T10:17:14.468Z,25.5
2023-02-23T10:22:33.049Z,25.5
2023-02-23T10:27:51.752Z,25.6
2023-02-23T10:33:09.965Z,25.6
2023-02-23T10:38:27.929Z,25.6
2023-02-23T10:43:46.379Z,25.6
2023-02-23T10:49:05.137Z,25.6
2023-02-23T10:54:24.095Z,25.6
2023-02-23T10:59:44.457Z,25.6
2023-02-23T11:05:02.446Z,25.6
2023-02-23T11:10:20.775Z,25.6
2023-02-23T11:15:51.164Z,25.5
2023-02-23T11:21:09.135Z,25.6
2023-02-23T11:26:28.599Z,25.6
2023-02-23T11:31:47.531Z,25.6
2023-02-23T11:37:06.501Z,25.5
2023-02-23T11:42:25.090Z,25.5
2023-02-23T11:47:43.645Z,25.5
2023-02-23T11:53:02.144Z,25.5
2023-02-23T11:58:20.872Z,25.5
2023-02-23T12:03:39.740Z,25.4
2023-02-23T12:08:58.083Z,25.4
2023-02-23T12:14:16.961Z,25.4
2023-02-23T12:19:35.322Z,25.4
2023-02-23T12:24:54.229Z,25.4
2023-02-23T12:30:12.843Z,25.4
2023-02-23T12:35:31.934Z,25.3
2023-02-23T12:40:52.561Z,25.3
2023-02-23T12:46:11.650Z,25.3
2023-02-23T12:51:30.544Z,25.3
2023-02-23T12:56:49.348Z,25.3
2023-02-23T13:02:08.203Z,25.2
2023-02-23T13:07:29.732Z,25.2
2023-02-23T13:12:48.096Z,25.2
2023-02-23T13:18:07.036Z,25.2
2023-02-23T13:23:25.235Z,25.2
2023-02-23T13:28:43.450Z,25.2
2023-02-23T13:34:01.966Z,25.1
2023-02-23T13:39:20.663Z,25.1
2023-02-23T13:44:38.931Z,25.1
2023-02-23T13:49:57.521Z,25.1
2023-02-23T13:55:15.787Z,25.1
2023-02-23T14:00:34.281Z,25
2023-02-23T14:05:52.802Z,25
2023-02-23T14:11:10.990Z,25
2023-02-23T14:16:30.118Z,25
2023-02-23T14:21:48.670Z,25
2023-02-23T14:27:06.969Z,25
2023-02-23T14:32:25.844Z,24.9
2023-02-23T14:37:44.795Z,24.9
2023-02-23T14:42:47.656Z,24.9
2023-02-23T14:48:06.366Z,24.8
2023-02-23T14:53:25.428Z,24.4
2023-02-23T14:58:43.796Z,24.1
2023-02-23T15:04:02.521Z,23.8
2023-02-23T15:09:21.265Z,23.7
2023-02-23T15:14:40.481Z,23.5
2023-02-23T15:20:16.908Z,23.4
2023-02-23T15:25:36.633Z,23.1
2023-02-23T15:30:55.155Z,22.9
2023-02-23T15:36:14.834Z,22.7
2023-02-23T15:41:33.298Z,22.5
2023-02-23T15:46:52.174Z,22.4
2023-02-23T15:52:10.277Z,22.3
2023-02-23T15:57:29.465Z,22.1
2023-02-23T16:02:48.284Z,22
2023-02-23T16:08:07.487Z,21.8
2023-02-23T16:13:25.759Z,22.1
2023-02-23T16:18:44.141Z,22.4
2023-02-23T16:24:02.334Z,22.6
2023-02-23T16:29:21.152Z,22.7
2023-02-23T16:34:39.869Z,22.7
2023-02-23T16:40:01.056Z,22.8
2023-02-23T16:45:19.787Z,22.9
2023-02-23T16:50:38.532Z,23
2023-02-23T16:55:57.424Z,23
2023-02-23T17:01:19.080Z,23.1
2023-02-23T17:06:38.494Z,23.1
2023-02-23T17:11:56.971Z,23.2
2023-02-23T17:17:15.507Z,23.2
2023-02-23T17:22:33.878Z,23.2
2023-02-23T17:27:52.765Z,23.3
2023-02-23T17:33:11.608Z,23.3
2023-02-23T17:38:30.526Z,23.3
2023-02-23T17:43:49.296Z,23.3
2023-02-23T17:49:07.535Z,23.4
2023-02-23T17:54:26.003Z,23.4
2023-02-23T17:59:44.773Z,23.4
2023-02-23T18:05:03.328Z,23.4
2023-02-23T18:10:21.765Z,23.5
2023-02-23T18:15:40.365Z,23.5
2023-02-23T18:20:58.434Z,23.5
2023-02-23T18:26:16.710Z,23.5
2023-02-23T18:31:35.377Z,23.5
2023-02-23T18:36:54.232Z,23.6
2023-02-23T18:42:15.859Z,23.6
2023-02-23T18:47:34.661Z,23.6
2023-02-23T18:52:53.437Z,23.5
2023-02-23T18:58:11.679Z,23.6
2023-02-23T19:03:29.963Z,23.6
2023-02-23T19:08:48.446Z,23.6
2023-02-23T19:14:06.925Z,23.6
2023-02-23T19:19:25.662Z,23.6
2023-02-23T19:24:43.912Z,23.6
2023-02-23T19:30:02.628Z,23.6
2023-02-23T19:35:20.812Z,23.6
2023-02-23T19:40:39.451Z,23.7
2023-02-23T19:45:57.823Z,23.7
2023-02-23T19:51:17.313Z,23.7
2023-02-23T19:56:36.117Z,23.7
2023-02-23T20:01:55.558Z,23.7
2023-02-23T20:07:14.180Z,23.7
2023-02-23T20:12:35.749Z,23.6
2023-02-23T20:17:54.331Z,23.7
2023-02-23T20:23:13.128Z,23.6
2023-02-23T20:28:31.625Z,23.6
2023-02-23T20:33:50.055Z,23.6
2023-02-23T20:39:08.397Z,23.6
2023-02-23T20:44:27.690Z,23.6
2023-02-23T20:49:45.896Z,23.7
2023-02-23T20:55:04.662Z,23.7
2023-02-23T21:00:23.323Z,23.7
2023-02-23T21:05:41.558Z,23.7
2023-02-23T21:11:00.317Z,23.7
2023-02-23T21:16:18.879Z,23.7
2023-02-23T21:21:37.038Z,23.7
2023-02-23T21:26:55.258Z,23.6
2023-02-23T21:32:13.584Z,23.6
2023-02-23T21:37:32.065Z,23.6
2023-02-23T21:42:50.532Z,23.6
2023-02-23T21:48:09.104Z,23.6
2023-02-23T21:53:27.566Z,23.7
2023-02-23T21:58:45.768Z,23.7
2023-02-23T22:04:04.308Z,23.7
2023-02-23T22:09:23.147Z,23.7
2023-02-23T22:14:41.634Z,23.7
2023-02-23T22:20:00.633Z,23.7
2023-02-23T22:25:19.582Z,23.7
2023-02-23T22:30:37.791Z,23.7
2023-02-23T22:35:56.161Z,23.7
2023-02-23T22:41:14.078Z,23.7
2023-02-23T22:46:32.528Z,23.7
2023-02-23T22:51:50.911Z,23.7
2023-02-23T22:57:09.107Z,23.7
2023-02-23T23:02:27.618Z,23.7
2023-02-23T23:07:46.458Z,23.8
2023-02-23T23:13:05.225Z,23.8
2023-02-23T23:18:23.987Z,23.8
2023-02-23T23:23:42.547Z,23.8
2023-02-23T23:29:01.124Z,23.8
2023-02-23T23:34:19.334Z,23.8
2023-02-23T23:39:38.170Z,23.8
2023-02-23T23:44:56.374Z,23.8
2023-02-23T23:50:14.893Z,23.8
2023-02-23T23:55:33.144Z,23.8
